Time;durP1;ratioP1;P1;durP2;ratioP2;P2;SDS_P1;SDS_P2;PMS_P1;PMS_P2;Temp;Humidity;BMP_temperature;BMP_pressure;BME280_temperature;BME280_humidity;BME280_pressure;Samples;Min_cycle;Max_cycle;Signal;HPM_P1;HPM_P2
2022/10/13 00:02:22;;;;;;;34.42;20.20;;;;;;;16.37;59.94;99442.88;4471921;32;20121;-81
2022/10/13 00:04:47;;;;;;;37.25;20.00;;;;;;;16.38;60.01;99444.63;4471779;32;20502;-81
2022/10/13 00:07:12;;;;;;;38.78;21.45;;;;;;;16.40;60.09;99449.81;4470506;32;20096;-81
2022/10/13 00:09:38;;;;;;;38.60;20.62;;;;;;;16.37;60.34;99444.72;4471691;32;20096;-81
2022/10/13 00:12:03;;;;;;;36.58;20.45;;;;;;;16.40;60.31;99439.16;4471683;32;20491;-81
2022/10/13 00:14:29;;;;;;;34.05;19.77;;;;;;;16.33;60.54;99436.09;4470439;32;20100;-82
2022/10/13 00:16:54;;;;;;;38.28;20.00;;;;;;;16.31;60.60;99433.53;4471668;32;20466;-82
2022/10/13 00:19:19;;;;;;;36.08;19.48;;;;;;;16.34;60.52;99432.47;4471197;32;20116;-82
2022/10/13 00:21:45;;;;;;;33.78;18.75;;;;;;;16.38;60.40;99438.41;4470457;32;20109;-82
2022/10/13 00:24:10;;;;;;;37.00;18.35;;;;;;;16.38;59.99;99439.28;4471540;32;20092;-82
2022/10/13 00:26:36;;;;;;;31.05;17.17;;;;;;;16.37;59.94;99440.22;4471636;32;20088;-81
2022/10/13 00:29:01;;;;;;;35.10;16.45;;;;;;;16.36;59.92;99435.00;4471501;32;20508;-81
2022/10/13 00:31:29;;;;;;;28.62;14.98;;;;;;;16.38;59.78;99435.75;4470460;32;20088;-81
2022/10/13 00:33:56;;;;;;;28.12;14.20;;;;;;;16.38;59.53;99430.44;4471542;32;20107;-81
2022/10/13 00:36:22;;;;;;;25.17;12.68;;;;;;;16.39;59.36;99435.66;4470620;32;20129;-81
2022/10/13 00:38:48;;;;;;;21.95;12.95;;;;;;;16.35;59.06;99443.97;4471320;32;20072;-81
2022/10/13 00:41:14;;;;;;;23.48;13.18;;;;;;;16.34;58.69;99442.25;4471210;32;20104;-81
2022/10/13 00:43:56;;;;;;;23.73;13.57;;;;;;;16.27;58.60;99440.00;4471568;32;20110;-81
2022/10/13 00:46:24;;;;;;;22.40;11.85;;;;;;;16.28;58.44;99440.84;4470353;32;20114;-84
2022/10/13 00:48:52;;;;;;;20.45;11.73;;;;;;;16.29;58.24;99442.56;4470613;32;20118;-84
2022/10/13 00:51:20;;;;;;;20.30;11.30;;;;;;;16.27;58.03;99440.00;4470537;32;20142;-84
2022/10/13 00:53:46;;;;;;;22.95;11.88;;;;;;;16.22;58.08;99434.12;4470419;32;20131;-84
2022/10/13 00:56:14;;;;;;;24.65;11.95;;;;;;;16.18;58.06;99432.66;4470373;32;20587;-85
2022/10/13 00:58:39;;;;;;;24.15;12.65;;;;;;;16.18;57.87;99429.16;4469338;32;20080;-85
2022/10/13 01:01:06;;;;;;;22.42;12.25;;;;;;;16.18;57.63;99427.34;4471538;32;20127;-81
2022/10/13 01:03:31;;;;;;;21.75;12.57;;;;;;;16.20;57.57;99433.38;4470256;32;20116;-81
2022/10/13 01:05:59;;;;;;;23.30;13.30;;;;;;;16.09;57.87;99423.50;4471049;32;20138;-82
2022/10/13 01:08:26;;;;;;;;;;;;;;;15.83;58.79;99430.53;4470268;32;20517;-82
2022/10/13 01:11:13;;;;;;;20.98;12.13;;;;;;;16.08;58.08;99424.44;4471285;32;20021;-82
2022/10/13 01:13:57;;;;;;;22.83;11.57;;;;;;;16.05;58.14;99427.31;4471289;32;20160;-83
2022/10/13 01:16:25;;;;;;;20.77;11.18;;;;;;;16.02;58.23;99434.66;4470005;32;20096;-80
2022/10/13 01:19:00;;;;;;;20.10;11.07;;;;;;;16.01;58.22;99430.28;4471230;32;20081;-80
2022/10/13 01:21:32;;;;;;;20.40;11.18;;;;;;;16.03;58.08;99431.00;4470085;32;20105;-80
2022/10/13 01:24:11;;;;;;;21.00;11.23;;;;;;;16.02;57.99;99432.84;4470007;32;20126;-80
2022/10/13 01:27:01;;;;;;;23.48;11.75;;;;;;;15.99;57.94;99437.50;4471198;32;20076;-80
2022/10/13 01:29:45;;;;;;;21.83;10.70;;;;;;;16.00;57.76;99431.25;4471159;32;20084;-80
2022/10/13 01:32:37;;;;;;;20.83;10.70;;;;;;;16.01;57.56;99433.81;4470975;32;20217;-80
2022/10/13 01:35:13;;;;;;;20.80;10.00;;;;;;;16.00;57.45;99431.25;4466568;32;20112;-80
2022/10/13 01:37:55;;;;;;;22.08;10.68;;;;;;;16.00;57.32;99429.44;4469993;32;20142;-79
2022/10/13 01:40:25;;;;;;;19.45;9.98;;;;;;;16.04;57.05;99422.94;4469485;32;20085;-79
2022/10/13 01:43:07;;;;;;;21.10;10.90;;;;;;;15.91;57.40;99420.25;4469864;32;20150;-80
2022/10/13 01:45:56;;;;;;;21.48;11.07;;;;;;;15.95;57.31;99412.09;4471051;32;20743;-79
2022/10/13 01:48:22;;;;;;;20.20;11.68;;;;;;;15.96;57.22;99414.66;4470125;32;20570;-80
2022/10/13 01:50:48;;;;;;;21.60;11.20;;;;;;;15.85;57.67;99412.69;4469589;32;20093;-80
2022/10/13 01:53:16;;;;;;;25.08;12.13;;;;;;;15.96;57.49;99413.81;4469721;32;20473;-80
2022/10/13 01:55:53;;;;;;;24.12;10.57;;;;;;;15.82;58.01;99414.69;4469740;32;20088;-80
2022/10/13 01:58:19;;;;;;;23.70;11.95;;;;;;;15.91;57.72;99414.09;4470787;32;20088;-80
2022/10/13 02:00:56;;;;;;;22.87;11.57;;;;;;;15.94;57.73;99413.06;4470779;32;20601;-80
2022/10/13 02:03:47;;;;;;;21.87;12.02;;;;;;;15.97;57.81;99408.34;4469632;32;20093;-80
2022/10/13 02:06:23;;;;;;;23.83;11.85;;;;;;;15.96;58.18;99405.84;4470711;32;20498;-80
2022/10/13 02:09:17;;;;;;;22.92;12.80;;;;;;;15.99;58.16;99403.78;4470176;32;20143;-80
2022/10/13 02:11:48;;;;;;;25.80;12.77;;;;;;;15.97;58.37;99404.84;4472515;32;20089;-80
2022/10/13 02:14:26;;;;;;;25.40;11.95;;;;;;;16.00;58.44;99410.81;4471739;32;20127;-82
2022/10/13 02:16:52;;;;;;;26.83;14.23;;;;;;;16.00;58.45;99410.81;4472990;32;20092;-81
2022/10/13 02:19:18;;;;;;;26.62;14.20;;;;;;;15.96;58.52;99409.34;4471666;32;20080;-81
2022/10/13 02:21:44;;;;;;;25.62;14.87;;;;;;;15.95;58.56;99407.63;4472611;32;20139;-81
2022/10/13 02:24:09;;;;;;;28.27;14.80;;;;;;;15.86;59.03;99409.09;4472877;32;20432;-81
2022/10/13 02:26:35;;;;;;;26.05;15.25;;;;;;;15.87;59.20;99407.28;4472443;32;20454;-81
2022/10/13 02:29:13;;;;;;;31.05;15.95;;;;;;;15.84;59.37;99411.00;4471522;32;20081;-80
2022/10/13 02:31:39;;;;;;;28.27;14.50;;;;;;;15.71;60.00;99410.91;4472721;32;20127;-80
2022/10/13 02:34:04;;;;;;;28.52;15.50;;;;;;;15.85;59.55;99415.34;4472659;32;20349;-80
2022/10/13 02:36:30;;;;;;;29.55;15.73;;;;;;;15.85;59.51;99398.56;4472613;32;20111;-80
2022/10/13 02:38:55;;;;;;;31.73;16.02;;;;;;;15.82;59.58;99399.63;4472584;32;20072;-80
2022/10/13 02:41:21;;;;;;;30.52;16.37;;;;;;;15.85;59.65;99412.69;4472353;32;20107;-80
2022/10/13 02:43:46;;;;;;;27.70;15.68;;;;;;;15.88;59.58;99415.16;4471390;32;20139;-80
2022/10/13 02:46:12;;;;;;;31.70;15.15;;;;;;;15.89;59.51;99405.38;4472635;32;20136;-81
2022/10/13 02:48:37;;;;;;;29.60;16.00;;;;;;;15.87;59.47;99405.47;4471373;32;20412;-81
2022/10/13 02:51:02;;;;;;;30.60;15.43;;;;;;;15.83;59.45;99401.31;4472517;32;20081;-81
2022/10/13 02:53:28;;;;;;;30.83;15.98;;;;;;;15.82;59.42;99407.59;4472460;32;20380;-80
2022/10/13 02:55:53;;;;;;;27.92;14.93;;;;;;;15.80;59.37;99412.16;4472604;32;20089;-81
2022/10/13 02:58:19;;;;;;;24.63;13.90;;;;;;;15.80;59.28;99409.50;4471141;32;20089;-80
2022/10/13 03:00:44;;;;;;;25.10;14.27;;;;;;;15.81;59.06;99402.38;4472555;32;20088;-82
2022/10/13 03:03:10;;;;;;;28.67;15.18;;;;;;;15.80;58.97;99408.63;4471206;32;20148;-81
2022/10/13 03:05:35;;;;;;;29.60;14.02;;;;;;;15.81;58.89;99410.34;4472468;32;20592;-81
2022/10/13 03:08:01;;;;;;;26.75;14.10;;;;;;;15.76;58.87;99413.31;4472550;32;20080;-82
2022/10/13 03:10:27;;;;;;;25.15;14.77;;;;;;;15.71;58.95;99412.72;4472291;32;20127;-81
2022/10/13 03:12:53;;;;;;;25.90;14.50;;;;;;;15.67;59.03;99403.25;4472391;32;20146;-80
2022/10/13 03:15:19;;;;;;;26.00;13.90;;;;;;;15.61;59.19;99407.19;4472470;32;20463;-80
2022/10/13 03:17:44;;;;;;;24.92;13.65;;;;;;;15.65;59.12;99413.97;4472038;32;20084;-80
2022/10/13 03:20:10;;;;;;;28.02;13.70;;;;;;;15.57;59.18;99399.47;4471239;32;20081;-81
2022/10/13 03:22:35;;;;;;;26.77;13.35;;;;;;;15.42;59.43;99404.00;4472051;32;20098;-80
2022/10/13 03:25:00;;;;;;;25.67;13.15;;;;;;;15.44;59.22;99404.75;4472013;32;20085;-81
2022/10/13 03:27:26;;;;;;;25.95;13.60;;;;;;;15.38;59.25;99406.00;4472183;32;20081;-80
2022/10/13 03:29:51;;;;;;;24.92;12.30;;;;;;;15.46;58.95;99408.16;4472000;32;20080;-82
2022/10/13 03:32:17;;;;;;;26.58;13.55;;;;;;;15.46;58.87;99403.69;4471908;32;20166;-81
2022/10/13 03:34:42;;;;;;;23.60;13.35;;;;;;;15.45;58.88;99398.47;4471906;32;20519;-82
2022/10/13 03:37:08;;;;;;;27.48;13.75;;;;;;;15.43;58.92;99401.28;4471865;32;20111;-82
2022/10/13 03:39:33;;;;;;;26.52;14.30;;;;;;;15.42;58.94;99399.53;4471942;32;20429;-82
2022/10/13 03:41:58;;;;;;;26.27;13.75;;;;;;;15.39;59.09;99401.53;4470433;32;20119;-82
2022/10/13 03:44:24;;;;;;;28.40;14.45;;;;;;;15.40;59.06;99406.75;4471937;32;20120;-81
2022/10/13 03:46:49;;;;;;;27.27;14.77;;;;;;;15.38;59.18;99397.19;4472240;32;20114;-81
2022/10/13 03:49:16;;;;;;;30.15;15.48;;;;;;;15.35;59.38;99395.56;4472086;32;20080;-82
2022/10/13 03:51:41;;;;;;;32.25;15.40;;;;;;;15.23;59.77;99397.22;4458133;32;20097;-82
2022/10/13 03:54:10;;;;;;;28.33;14.65;;;;;;;15.27;59.93;99392.56;4472072;32;20115;-82
2022/10/13 03:56:36;;;;;;;28.02;15.38;;;;;;;15.31;59.78;99399.37;4470622;32;20148;-82
2022/10/13 03:59:03;;;;;;;30.42;14.75;;;;;;;15.31;59.67;99392.25;4471818;32;20361;-81
2022/10/13 04:01:29;;;;;;;31.42;14.63;;;;;;;15.25;59.68;99394.47;4471706;32;20177;-81
2022/10/13 04:03:56;;;;;;;29.23;16.25;;;;;;;15.26;59.61;99396.16;4471802;32;20595;-81
2022/10/13 04:06:22;;;;;;;30.33;16.23;;;;;;;15.22;59.74;99390.22;4470593;32;20479;-82
2022/10/13 04:08:48;;;;;;;27.17;15.02;;;;;;;15.23;59.65;99386.59;4471680;32;20141;-82
2022/10/13 04:11:14;;;;;;;28.62;14.85;;;;;;;15.23;59.44;99396.38;4471804;32;20444;-83
2022/10/13 04:13:40;;;;;;;24.58;13.65;;;;;;;15.12;59.09;99394.41;4471730;32;20120;-84
2022/10/13 04:16:08;;;;;;;28.98;14.15;;;;;;;15.13;58.93;99391.66;4457710;32;20096;-81
2022/10/13 04:18:33;;;;;;;;;;;;;;;15.17;58.68;99389.66;4471917;32;20103;-81
2022/10/13 04:20:59;;;;;;;25.05;11.75;;;;;;;15.14;58.38;99384.53;4457484;32;20002;-81
2022/10/13 04:23:25;;;;;;;20.42;10.35;;;;;;;15.10;58.15;99383.03;4471657;32;20119;-81
2022/10/13 04:25:50;;;;;;;22.23;11.52;;;;;;;15.08;57.84;99382.28;4471609;32;20109;-81
2022/10/13 04:28:16;;;;;;;23.90;11.38;;;;;;;15.03;57.65;99382.59;4471695;32;20088;-81
2022/10/13 04:30:41;;;;;;;27.05;13.32;;;;;;;15.02;57.79;99385.31;4471582;32;20136;-82
2022/10/13 04:33:06;;;;;;;26.27;13.95;;;;;;;14.96;58.25;99388.38;4471262;32;20124;-82
2022/10/13 04:35:32;;;;;;;29.20;13.93;;;;;;;15.03;58.20;99390.53;4471594;32;20128;-82
2022/10/13 04:37:57;;;;;;;25.55;11.23;;;;;;;14.80;59.37;99388.50;4471474;32;20124;-81
2022/10/13 04:40:24;;;;;;;23.70;11.73;;;;;;;14.94;58.79;99384.00;4470086;32;20423;-81
2022/10/13 04:42:49;;;;;;;21.48;10.95;;;;;;;15.03;58.29;99387.88;4471640;32;20093;-81
2022/10/13 04:45:15;;;;;;;23.42;11.98;;;;;;;15.03;58.03;99387.88;4471501;32;20429;-80
2022/10/13 04:47:40;;;;;;;23.95;10.98;;;;;;;15.06;57.89;99387.66;4471621;32;20178;-80
2022/10/13 04:50:06;;;;;;;22.85;10.70;;;;;;;15.08;57.88;99390.25;4471556;32;20096;-77
2022/10/13 04:52:35;;;;;;;19.45;10.25;;;;;;;15.03;57.88;99387.03;4471487;32;20256;-79
2022/10/13 04:55:01;;;;;;;19.92;10.25;;;;;;;14.99;57.67;99388.16;4471487;32;20104;-77
2022/10/13 04:57:27;;;;;;;20.80;11.15;;;;;;;14.98;57.49;99384.66;4470277;32;20142;-76
2022/10/13 04:59:52;;;;;;;21.62;10.68;;;;;;;15.00;57.13;99390.72;4471280;32;20532;-77
2022/10/13 05:02:18;;;;;;;20.95;10.15;;;;;;;14.97;57.11;99398.91;4470209;32;20093;-77
2022/10/13 05:04:43;;;;;;;21.30;9.48;;;;;;;14.97;57.01;99385.63;4471306;32;20159;-77
2022/10/13 05:07:09;;;;;;;19.37;8.07;;;;;;;14.96;56.47;99383.91;4471392;32;20425;-77
2022/10/13 05:09:34;;;;;;;19.37;9.10;;;;;;;14.90;55.75;99395.75;4469886;32;20108;-77
2022/10/13 05:11:59;;;;;;;18.35;8.23;;;;;;;14.93;55.52;99392.91;4471307;32;20077;-79
2022/10/13 05:14:25;;;;;;;17.23;8.18;;;;;;;14.83;55.41;99390.94;4471286;32;20084;-79
2022/10/13 05:16:51;;;;;;;20.12;9.98;;;;;;;14.89;55.72;99394.06;4471140;32;20080;-79
2022/10/13 05:19:16;;;;;;;23.00;10.80;;;;;;;14.87;55.98;99388.00;4471157;32;20108;-79
2022/10/13 05:21:41;;;;;;;25.42;12.25;;;;;;;14.79;57.09;99389.41;4471189;32;20137;-78
2022/10/13 05:24:12;;;;;;;23.25;11.27;;;;;;;14.87;57.24;99387.12;4470040;32;20084;-78
2022/10/13 05:26:37;;;;;;;24.65;12.32;;;;;;;14.94;57.23;99383.16;4457411;32;20092;-78
2022/10/13 05:29:03;;;;;;;22.15;11.05;;;;;;;15.01;57.33;99387.12;4469976;32;20366;-79
2022/10/13 05:31:29;;;;;;;24.02;11.27;;;;;;;15.05;57.46;99387.78;4470080;32;20446;-81
2022/10/13 05:33:55;;;;;;;21.15;10.77;;;;;;;15.15;57.28;99391.56;4469980;32;20119;-80
2022/10/13 05:36:30;;;;;;;20.45;10.30;;;;;;;15.20;57.10;99392.13;4469772;32;20085;-79
2022/10/13 05:38:57;;;;;;;20.67;9.13;;;;;;;15.23;56.86;99397.22;4471278;32;20452;-79
2022/10/13 05:41:23;;;;;;;18.75;9.27;;;;;;;15.32;56.37;99390.47;4470795;32;20494;-80
2022/10/13 05:43:50;;;;;;;19.23;8.82;;;;;;;15.37;55.96;99393.66;4455917;32;20085;-77
2022/10/13 05:46:16;;;;;;;18.37;8.77;;;;;;;15.44;55.53;99395.00;4469889;32;20112;-79
2022/10/13 05:48:41;;;;;;;18.52;8.82;;;;;;;15.50;55.26;99389.28;4470895;32;20411;-80
2022/10/13 05:51:10;;;;;;;20.35;10.82;;;;;;;15.61;55.14;99395.72;4470937;32;20158;-80
2022/10/13 05:53:39;;;;;;;21.95;10.75;;;;;;;15.54;55.32;99396.09;4470828;32;20218;-81
2022/10/13 05:56:11;;;;;;;21.95;10.82;;;;;;;15.65;55.03;99400.69;4470828;32;20093;-81
2022/10/13 05:58:40;;;;;;;22.25;10.35;;;;;;;15.43;55.56;99406.56;4467765;32;20105;-82
2022/10/13 06:01:07;;;;;;;18.55;9.70;;;;;;;15.41;55.54;99400.47;4454534;32;20105;-82
2022/10/13 06:03:33;;;;;;;22.30;11.48;;;;;;;15.59;55.42;99403.78;4449392;32;20112;-82
2022/10/13 06:05:58;;;;;;;26.77;15.00;;;;;;;15.72;55.75;99403.78;4452033;32;20444;-81
2022/10/13 06:08:24;;;;;;;26.98;14.25;;;;;;;15.50;57.36;99405.19;4465945;32;20176;-81
2022/10/13 06:10:49;;;;;;;23.55;11.45;;;;;;;15.79;56.81;99409.59;4456516;32;20100;-81
2022/10/13 06:13:15;;;;;;;24.33;12.25;;;;;;;15.98;56.38;99417.22;4456237;32;20119;-81
2022/10/13 06:15:40;;;;;;;30.35;16.42;;;;;;;15.97;56.42;99416.34;4456539;32;20179;-80
2022/10/13 06:18:09;;;;;;;27.08;16.12;;;;;;;16.08;56.99;99412.97;4460561;32;20128;-82
2022/10/13 06:20:35;;;;;;;27.65;15.45;;;;;;;15.98;57.76;99419.88;4462457;32;20131;-81
2022/10/13 06:23:00;;;;;;;27.73;13.80;;;;;;;16.00;57.74;99415.28;4456106;32;20081;-84
2022/10/13 06:25:26;;;;;;;25.83;14.63;;;;;;;16.18;57.41;99423.81;4456685;32;20104;-85
2022/10/13 06:27:51;;;;;;;24.85;12.60;;;;;;;16.14;57.65;99423.19;4451880;32;20241;-84
2022/10/13 06:30:17;;;;;;;25.33;13.73;;;;;;;16.28;57.13;99419.59;4439007;32;20112;-84
2022/10/13 06:32:42;;;;;;;25.98;13.32;;;;;;;16.28;56.99;99423.13;4453903;32;20163;-84
2022/10/13 06:35:08;;;;;;;26.42;14.95;;;;;;;16.46;56.74;99414.84;4452806;32;20107;-84
2022/10/13 06:37:33;;;;;;;23.90;13.27;;;;;;;16.46;56.87;99415.69;4452897;32;20101;-84
2022/10/13 06:39:59;;;;;;;24.65;12.05;;;;;;;16.61;56.45;99416.44;4454008;32;20133;-84
2022/10/13 06:42:24;;;;;;;23.77;11.55;;;;;;;16.62;56.57;99415.47;4453825;32;20376;-84
2022/10/13 06:44:50;;;;;;;24.63;12.18;;;;;;;16.78;56.41;99414.37;4453593;32;20082;-84
2022/10/13 06:47:15;;;;;;;27.00;13.88;;;;;;;16.70;56.27;99413.09;4453654;32;20449;-84
2022/10/13 06:49:40;;;;;;;24.75;13.30;;;;;;;16.54;56.80;99409.81;4454796;32;20093;-84
2022/10/13 06:52:06;;;;;;;22.98;13.05;;;;;;;16.34;57.74;99415.66;4454754;32;20085;-84
2022/10/13 06:54:31;;;;;;;26.60;13.48;;;;;;;16.59;57.04;99414.81;4455099;32;20085;-84
2022/10/13 06:56:57;;;;;;;27.85;14.10;;;;;;;16.78;56.74;99414.37;4456817;32;20163;-84
2022/10/13 06:59:22;;;;;;;26.65;14.13;;;;;;;16.92;56.52;99416.09;4457037;32;20145;-84
2022/10/13 07:01:48;;;;;;;22.77;12.88;;;;;;;17.02;56.20;99412.69;4456723;32;20077;-84
2022/10/13 07:04:14;;;;;;;25.60;13.90;;;;;;;17.08;56.02;99412.25;4455648;32;20357;-84
2022/10/13 07:06:39;;;;;;;27.50;14.32;;;;;;;16.40;57.75;99416.09;4456794;32;20404;-84
2022/10/13 07:09:06;;;;;;;30.17;14.57;;;;;;;16.79;56.93;99408.13;4455391;32;20453;-84
2022/10/13 07:11:31;;;;;;;31.30;14.60;;;;;;;17.06;56.41;99408.84;4455572;32;20081;-84
2022/10/13 07:13:57;;;;;;;28.50;13.40;;;;;;;17.15;56.05;99415.31;4455436;32;20131;-84
2022/10/13 07:16:22;;;;;;;26.17;14.35;;;;;;;17.01;55.59;99415.47;4456582;32;20530;-84
2022/10/13 07:18:48;;;;;;;27.17;14.13;;;;;;;17.07;55.46;99409.69;4455441;32;20132;-84
2022/10/13 07:21:14;;;;;;;25.85;14.13;;;;;;;17.20;54.75;99410.50;4455151;32;20088;-84
2022/10/13 07:23:39;;;;;;;27.67;13.48;;;;;;;16.98;54.69;99413.87;4455181;32;20093;-84
2022/10/13 07:26:10;;;;;;;25.70;14.52;;;;;;;17.21;54.46;99412.22;4455255;32;20200;-84
2022/10/13 07:28:36;;;;;;;27.58;15.07;;;;;;;17.32;54.25;99414.09;4456472;32;20457;-84
2022/10/13 07:31:13;;;;;;;27.83;15.00;;;;;;;16.93;55.20;99420.47;4455213;32;20115;-84
2022/10/13 07:33:39;;;;;;;28.08;15.30;;;;;;;17.24;54.57;99416.47;4455331;32;20199;-84
2022/10/13 07:36:05;;;;;;;25.60;14.07;;;;;;;17.39;53.84;99414.53;4455305;32;20101;-84
2022/10/13 07:38:31;;;;;;;29.25;15.70;;;;;;;17.28;53.59;99410.81;4455233;32;20430;-84
2022/10/13 07:41:01;;;;;;;26.70;14.27;;;;;;;17.43;53.37;99413.34;4441980;32;20081;-84
2022/10/13 07:43:26;;;;;;;29.77;15.07;;;;;;;17.53;53.08;99410.84;4456365;32;20107;-84
2022/10/13 07:45:51;;;;;;;25.35;15.02;;;;;;;17.58;53.03;99414.87;4456272;32;20093;-84
2022/10/13 07:48:17;;;;;;;31.85;15.55;;;;;;;17.71;52.78;99416.63;4456376;32;20115;-84
2022/10/13 07:50:42;;;;;;;26.48;14.93;;;;;;;17.60;52.37;99414.75;4456234;32;20472;-84
2022/10/13 07:53:07;;;;;;;25.25;14.15;;;;;;;17.54;52.14;99410.75;4456556;32;20417;-84
2022/10/13 07:55:33;;;;;;;26.23;13.00;;;;;;;17.46;52.04;99413.09;4456119;32;20093;-84
2022/10/13 07:58:02;;;;;;;23.83;11.55;;;;;;;17.38;51.55;99413.66;4456309;32;20621;-84
2022/10/13 08:00:28;;;;;;;21.90;10.82;;;;;;;17.69;50.77;99412.28;4456187;32;20372;-84
2022/10/13 08:02:53;;;;;;;19.58;10.18;;;;;;;17.85;49.21;99416.50;4454942;32;20103;-84
2022/10/13 08:05:18;;;;;;;21.52;10.57;;;;;;;17.91;48.52;99408.03;4456257;32;20081;-84
2022/10/13 08:07:44;;;;;;;19.30;10.43;;;;;;;18.01;47.42;99403.69;4455814;32;20085;-84
2022/10/13 08:10:10;;;;;;;22.05;10.10;;;;;;;18.15;47.64;99407.13;4456176;32;20486;-84
2022/10/13 08:12:35;;;;;;;20.62;9.82;;;;;;;18.14;47.11;99406.28;4456235;32;20078;-84
2022/10/13 08:15:02;;;;;;;24.52;10.85;;;;;;;18.16;46.65;99400.84;4455025;32;20479;-84
2022/10/13 08:17:27;;;;;;;25.83;11.38;;;;;;;18.22;46.73;99403.88;4456184;32;20149;-84
2022/10/13 08:19:53;;;;;;;24.27;12.25;;;;;;;18.27;46.84;99408.84;4456104;32;20092;-84
2022/10/13 08:22:18;;;;;;;22.20;11.12;;;;;;;18.33;46.99;99400.41;4456117;32;20337;-84
2022/10/13 08:24:44;;;;;;;24.08;11.20;;;;;;;18.41;46.31;99399.81;4455097;32;20121;-84
2022/10/13 08:27:18;;;;;;;23.10;12.13;;;;;;;18.42;46.30;99388.16;4456252;32;20068;-84
2022/10/13 08:29:43;;;;;;;23.33;12.50;;;;;;;18.42;46.30;99391.66;4454966;32;20135;-84
2022/10/13 08:32:09;;;;;;;23.58;12.60;;;;;;;18.42;46.46;99385.50;4456086;32;20085;-84
2022/10/13 08:34:35;;;;;;;25.83;13.05;;;;;;;18.44;46.37;99388.88;4455905;32;20089;-84
2022/10/13 08:37:01;;;;;;;21.50;11.23;;;;;;;18.40;46.47;99382.94;4455995;32;20157;-84
2022/10/13 08:39:27;;;;;;;21.30;10.18;;;;;;;18.51;46.18;99381.28;4455959;32;20104;-84
2022/10/13 08:41:53;;;;;;;20.35;10.63;;;;;;;18.53;46.28;99384.66;4455861;32;20113;-84
2022/10/13 08:44:41;;;;;;;20.77;10.18;;;;;;;18.56;44.88;99385.28;4454855;32;20133;-84
2022/10/13 08:47:40;;;;;;;19.45;10.10;;;;;;;18.57;44.51;99378.13;4456009;32;20105;-84
2022/10/13 08:50:11;;;;;;;20.10;8.95;;;;;;;18.56;44.70;99384.41;4456052;32;20115;-84
2022/10/13 08:52:49;;;;;;;21.17;9.98;;;;;;;18.56;44.89;99385.28;4454903;32;20538;-84
2022/10/13 08:55:43;;;;;;;19.40;9.05;;;;;;;18.62;44.83;99375.91;4454883;32;20131;-84
2022/10/13 08:58:13;;;;;;;22.20;9.38;;;;;;;18.63;45.11;99378.47;4454944;32;20097;-84
2022/10/13 09:00:38;;;;;;;19.52;9.57;;;;;;;18.31;45.14;99380.12;4454589;32;20444;-84
2022/10/13 09:03:22;;;;;;;23.75;9.93;;;;;;;18.55;44.45;99372.91;4455774;32;20103;-83
2022/10/13 09:06:02;;;;;;;21.08;9.70;;;;;;;18.62;44.60;99375.91;4455908;32;20554;-84
2022/10/13 09:08:37;;;;;;;21.48;10.80;;;;;;;18.71;44.64;99375.19;4454777;32;20159;-84
2022/10/13 09:11:02;;;;;;;21.30;10.50;;;;;;;18.78;45.09;99370.25;4454777;32;20081;-84
2022/10/13 09:13:28;;;;;;;21.33;9.60;;;;;;;18.78;44.86;99370.25;4454471;32;20165;-84
2022/10/13 09:15:55;;;;;;;21.15;10.27;;;;;;;18.85;44.72;99372.34;4454676;32;20117;-84
2022/10/13 09:18:27;;;;;;;18.73;9.80;;;;;;;18.85;44.11;99379.47;4454475;32;20146;-84
2022/10/13 09:21:08;;;;;;;22.13;9.82;;;;;;;18.92;43.84;99374.50;4454548;32;20081;-84
2022/10/13 09:23:34;;;;;;;21.20;9.73;;;;;;;18.72;44.56;99374.25;4454518;32;20452;-84
2022/10/13 09:26:06;;;;;;;22.50;9.40;;;;;;;18.94;44.65;99377.91;4455440;32;20134;-84
2022/10/13 09:28:32;;;;;;;20.92;9.25;;;;;;;18.95;43.36;99363.56;4455701;32;20092;-84
2022/10/13 09:31:16;;;;;;;20.48;9.48;;;;;;;19.01;43.77;99366.63;4455508;32;20463;-84
2022/10/13 09:33:41;;;;;;;22.15;9.55;;;;;;;19.15;43.43;99370.00;4455592;32;20077;-84
2022/10/13 09:36:10;;;;;;;21.60;9.65;;;;;;;19.16;43.09;99366.34;4454377;32;20420;-84
2022/10/13 09:38:35;;;;;;;20.37;9.77;;;;;;;19.20;42.95;99365.97;4454245;32;20153;-84
2022/10/13 09:41:04;;;;;;;18.87;9.27;;;;;;;19.21;42.48;99358.81;4455335;32;20089;-83
2022/10/13 09:43:46;;;;;;;20.23;9.77;;;;;;;19.21;42.81;99350.78;4455759;32;20073;-84
2022/10/13 09:46:33;;;;;;;19.12;9.13;;;;;;;19.22;43.10;99355.19;4455519;32;20384;-84
2022/10/13 09:49:06;;;;;;;19.62;10.32;;;;;;;19.24;43.33;99358.56;4454324;32;20400;-84
2022/10/13 09:51:33;;;;;;;20.33;9.95;;;;;;;19.27;43.75;99357.47;4454300;32;20085;-84
2022/10/13 09:53:58;;;;;;;22.07;10.20;;;;;;;18.52;44.10;99359.78;4454238;32;20085;-84
2022/10/13 09:56:45;;;;;;;21.95;9.75;;;;;;;18.99;43.65;99360.56;4455421;32;20203;-84
2022/10/13 09:59:23;;;;;;;18.02;8.93;;;;;;;19.03;43.30;99358.50;4454286;32;20115;-84
2022/10/13 10:01:50;;;;;;;19.35;8.15;;;;;;;19.18;42.76;99361.72;4454376;32;20486;-84
2022/10/13 10:04:19;;;;;;;21.60;9.38;;;;;;;19.13;42.70;99346.06;4454316;32;20103;-84
2022/10/13 10:06:45;;;;;;;18.35;9.20;;;;;;;19.18;42.64;99357.25;4454287;32;20256;-84
2022/10/13 10:09:33;;;;;;;19.42;8.73;;;;;;;19.23;42.53;99349.69;4454033;32;20119;-84
2022/10/13 10:11:59;;;;;;;18.23;8.77;;;;;;;19.35;42.65;99349.66;4455409;32;20081;-84
2022/10/13 10:14:28;;;;;;;19.25;9.15;;;;;;;19.44;42.45;99348.91;4455014;32;20131;-84
2022/10/13 10:17:16;;;;;;;17.45;8.05;;;;;;;19.39;42.75;99345.75;4453911;32;20113;-83
2022/10/13 10:19:41;;;;;;;18.97;9.20;;;;;;;19.29;43.12;99342.16;4453891;32;20460;-84
2022/10/13 10:22:21;;;;;;;19.37;9.68;;;;;;;19.38;43.13;99344.91;4455048;32;20190;-85
2022/10/13 10:24:58;;;;;;;18.12;9.10;;;;;;;19.34;43.56;99334.62;4453758;32;20078;-84
2022/10/13 10:28:15;;;;;;;21.62;10.13;;;;;;;19.43;44.04;99336.50;4454946;32;20093;-84
2022/10/13 10:31:18;;;;;;;21.48;10.73;;;;;;;19.53;43.71;99326.78;4452028;32;20121;-84
2022/10/13 10:33:50;;;;;;;21.92;11.30;;;;;;;19.60;43.74;99327.09;4410815;32;20085;-84
2022/10/13 10:36:21;;;;;;;19.62;10.02;;;;;;;19.61;43.53;99323.47;4423878;32;20425;-83
2022/10/13 10:38:51;;;;;;;25.05;10.52;;;;;;;19.57;43.64;99320.19;4410958;32;20144;-84
2022/10/13 10:41:25;;;;;;;21.45;10.02;;;;;;;19.54;43.42;99322.28;4410681;32;20935;-83
2022/10/13 10:43:54;;;;;;;20.75;10.43;;;;;;;18.56;45.18;99323.91;4410852;32;20274;-84
2022/10/13 10:46:23;;;;;;;21.30;10.70;;;;;;;19.11;44.63;99315.97;4423815;32;20117;-84
2022/10/13 10:48:53;;;;;;;22.17;10.38;;;;;;;19.27;44.83;99309.38;4410922;32;20129;-84
2022/10/13 10:51:19;;;;;;;20.88;9.80;;;;;;;19.34;44.43;99308.75;4411129;32;20109;-84
2022/10/13 10:54:04;;;;;;;21.73;9.50;;;;;;;19.51;43.72;99314.50;4411178;32;20101;-84
2022/10/13 10:56:42;;;;;;;24.55;10.15;;;;;;;19.56;43.69;99304.28;4423468;32;20078;-84
2022/10/13 10:59:19;;;;;;;19.37;9.00;;;;;;;19.56;43.43;99299.78;4410889;32;20149;-84
2022/10/13 11:01:58;;;;;;;21.70;9.97;;;;;;;19.62;43.69;99298.41;4423586;32;20121;-84
2022/10/13 11:04:48;;;;;;;25.60;10.88;;;;;;;19.23;44.59;99296.25;4410813;32;20137;-84
2022/10/13 11:07:23;;;;;;;21.08;9.80;;;;;;;19.52;43.63;99292.16;4410675;32;20128;-84
2022/10/13 11:09:51;;;;;;;20.35;9.38;;;;;;;19.55;43.95;99283.91;4430503;32;20529;-83
2022/10/13 11:12:19;;;;;;;19.33;9.98;;;;;;;19.69;44.25;99282.72;4456618;32;20088;-84
2022/10/13 11:14:45;;;;;;;22.52;10.63;;;;;;;19.70;44.51;99279.06;4456642;32;20114;-84
2022/10/13 11:17:17;;;;;;;22.95;10.70;;;;;;;19.47;45.17;99281.88;4456540;32;20085;-84
2022/10/13 11:19:42;;;;;;;20.15;10.13;;;;;;;19.30;45.63;99283.28;4456491;32;20124;-84
2022/10/13 11:22:13;;;;;;;22.50;10.23;;;;;;;19.71;44.87;99272.75;4455238;32;20105;-84
2022/10/13 11:24:39;;;;;;;21.50;11.07;;;;;;;19.80;44.26;99269.34;4456442;32;20085;-84
2022/10/13 11:27:10;;;;;;;20.45;9.30;;;;;;;19.82;44.12;99264.72;4456524;32;20069;-84
2022/10/13 11:29:53;;;;;;;19.08;9.70;;;;;;;19.87;44.43;99265.12;4456447;32;20101;-84